createdAt,value
2022-10-01T00:02:01.398Z,11.78
2022-10-01T00:05:03.981Z,11.77
2022-10-01T00:08:06.597Z,11.65
2022-10-01T00:11:14.105Z,11.90
2022-10-01T00:14:17.364Z,11.81
2022-10-01T00:17:33.718Z,11.56
2022-10-01T00:20:36.372Z,11.67
2022-10-01T00:23:39.289Z,11.70
2022-10-01T00:26:45.432Z,11.82
2022-10-01T00:29:47.958Z,11.97
2022-10-01T00:32:53.751Z,11.95
2022-10-01T00:35:56.900Z,11.95
2022-10-01T00:39:01.035Z,12.00
2022-10-01T00:42:06.344Z,12.05
2022-10-01T00:45:11.839Z,11.92
2022-10-01T00:48:14.418Z,11.88
2022-10-01T00:51:17.176Z,11.83
2022-10-01T00:54:24.092Z,11.87
2022-10-01T00:57:28.516Z,11.90
2022-10-01T01:00:32.028Z,11.64
2022-10-01T01:03:34.694Z,11.79
2022-10-01T01:06:37.617Z,11.81
2022-10-01T01:09:44.687Z,11.78
2022-10-01T01:13:06.020Z,11.82
2022-10-01T01:16:14.085Z,11.63
2022-10-01T01:19:35.026Z,11.80
2022-10-01T01:22:42.074Z,11.83
2022-10-01T01:25:48.949Z,11.82
2022-10-01T01:28:58.277Z,11.59
2022-10-01T01:32:09.418Z,11.67
2022-10-01T01:35:22.369Z,11.70
2022-10-01T01:38:29.128Z,11.54
2022-10-01T01:41:36.703Z,11.69
2022-10-01T01:44:46.915Z,11.73
2022-10-01T01:47:50.352Z,11.80
2022-10-01T01:50:58.343Z,11.70
2022-10-01T01:54:01.303Z,11.89
2022-10-01T01:57:05.051Z,11.94
2022-10-01T02:00:11.392Z,11.85
2022-10-01T02:03:13.971Z,11.95
2022-10-01T02:06:29.019Z,11.87
2022-10-01T02:09:35.961Z,12.07
2022-10-01T02:12:49.936Z,11.87
2022-10-01T02:16:04.193Z,11.86
2022-10-01T02:19:18.600Z,12.06
2022-10-01T02:22:24.526Z,12.04
2022-10-01T02:25:32.989Z,11.93
2022-10-01T02:28:40.245Z,12.12
2022-10-01T02:31:46.310Z,11.83
2022-10-01T02:34:51.068Z,12.12
2022-10-01T02:37:55.545Z,12.10
2022-10-01T02:41:03.194Z,12.20
2022-10-01T02:44:10.974Z,11.98
2022-10-01T02:47:21.174Z,11.99
2022-10-01T02:50:27.933Z,12.11
2022-10-01T02:53:36.176Z,11.98
2022-10-01T02:56:58.269Z,12.16
2022-10-01T03:00:03.473Z,12.20
2022-10-01T03:03:07.342Z,12.27
2022-10-01T03:06:09.811Z,12.13
2022-10-01T03:09:12.306Z,12.19
2022-10-01T03:12:15.562Z,12.18
2022-10-01T03:15:20.000Z,12.20
2022-10-01T03:18:23.897Z,12.14
2022-10-01T03:21:26.840Z,12.30
2022-10-01T03:24:29.438Z,12.28
2022-10-01T03:27:32.010Z,12.17
2022-10-01T03:30:34.646Z,12.18
2022-10-01T03:33:38.735Z,12.03
2022-10-01T03:36:41.275Z,12.17
2022-10-01T03:39:43.748Z,11.97
2022-10-01T03:42:46.234Z,12.04
2022-10-01T03:45:48.956Z,12.16
2022-10-01T03:48:53.317Z,12.31
2022-10-01T03:51:56.450Z,12.27
2022-10-01T03:55:00.618Z,12.19
2022-10-01T03:58:03.554Z,12.12
2022-10-01T04:01:06.097Z,12.31
2022-10-01T04:04:09.944Z,12.29
2022-10-01T04:07:12.419Z,12.16
2022-10-01T04:10:15.102Z,12.21
2022-10-01T04:13:18.466Z,12.40
2022-10-01T04:16:21.156Z,12.39
2022-10-01T04:19:25.171Z,12.39
2022-10-01T04:22:27.662Z,12.40
2022-10-01T04:25:30.934Z,12.24
2022-10-01T04:28:33.440Z,12.18
2022-10-01T04:31:37.929Z,12.21
2022-10-01T04:34:53.875Z,12.11
2022-10-01T04:37:58.346Z,12.24
2022-10-01T04:41:00.830Z,12.09
2022-10-01T04:44:03.870Z,12.16
2022-10-01T04:47:06.528Z,12.08
2022-10-01T04:50:10.669Z,11.99
2022-10-01T04:53:13.191Z,11.82
2022-10-01T04:56:15.696Z,12.05
2022-10-01T04:59:18.301Z,11.99
2022-10-01T05:02:21.231Z,12.03
2022-10-01T05:05:28.070Z,11.97
2022-10-01T05:08:31.155Z,11.99
2022-10-01T05:11:34.682Z,11.80
2022-10-01T05:14:37.394Z,11.87
2022-10-01T05:17:39.908Z,11.89
2022-10-01T05:20:43.798Z,11.87
2022-10-01T05:23:46.310Z,11.82
2022-10-01T05:26:48.783Z,11.73
2022-10-01T05:29:51.256Z,11.87
2022-10-01T05:32:57.739Z,11.66
2022-10-01T05:36:01.869Z,11.83
2022-10-01T05:39:04.625Z,11.72
2022-10-01T05:42:07.127Z,11.78
2022-10-01T05:45:11.108Z,11.75
2022-10-01T05:48:13.755Z,11.85
2022-10-01T05:51:18.798Z,11.79
2022-10-01T05:54:23.152Z,11.57
2022-10-01T05:57:25.714Z,11.73
2022-10-01T06:00:29.544Z,11.54
2022-10-01T06:03:32.250Z,11.44
2022-10-01T06:06:36.066Z,11.16
2022-10-01T06:09:38.536Z,11.33
2022-10-01T06:12:41.208Z,10.93
2022-10-01T06:15:43.699Z,11.02
2022-10-01T06:18:48.437Z,11.08
2022-10-01T06:21:52.697Z,10.75
2022-10-01T06:24:57.615Z,10.88
2022-10-01T06:28:00.763Z,10.80
2022-10-01T06:31:03.982Z,10.93
2022-10-01T06:34:06.578Z,11.00
2022-10-01T06:37:10.525Z,10.98
2022-10-01T06:40:13.091Z,11.05
2022-10-01T06:43:15.547Z,11.10
2022-10-01T06:46:18.065Z,10.50
2022-10-01T06:49:22.092Z,10.48
2022-10-01T06:52:43.642Z,10.64
2022-10-01T06:55:46.492Z,10.96
2022-10-01T06:58:48.976Z,10.99
2022-10-01T07:01:56.400Z,10.68
2022-10-01T07:04:59.684Z,10.87
2022-10-01T07:08:04.180Z,10.91
2022-10-01T07:11:09.708Z,10.57
2022-10-01T07:14:12.190Z,10.79
2022-10-01T07:17:14.694Z,10.67
2022-10-01T07:20:18.071Z,10.57
2022-10-01T07:23:24.349Z,10.87
2022-10-01T07:26:26.844Z,10.76
2022-10-01T07:29:30.769Z,10.82
2022-10-01T07:32:35.214Z,10.79
2022-10-01T07:35:38.087Z,10.75
2022-10-01T07:38:43.482Z,10.75
2022-10-01T07:41:45.987Z,10.94
2022-10-01T07:44:48.529Z,10.74
2022-10-01T07:47:54.346Z,10.56
2022-10-01T07:50:57.726Z,10.99
2022-10-01T07:54:01.537Z,10.78
2022-10-01T07:57:04.087Z,10.94
2022-10-01T08:00:08.466Z,10.85
2022-10-01T08:03:12.618Z,10.71
2022-10-01T08:06:15.144Z,10.90
2022-10-01T08:09:19.009Z,11.00
2022-10-01T08:12:21.480Z,11.05
2022-10-01T08:15:23.980Z,11.04
2022-10-01T08:18:26.528Z,11.15
2022-10-01T08:21:29.182Z,10.99
2022-10-01T08:24:34.682Z,11.06
2022-10-01T08:27:37.804Z,11.24
2022-10-01T08:30:42.379Z,11.43
2022-10-01T08:33:45.386Z,11.32
2022-10-01T08:36:51.882Z,11.03
2022-10-01T08:39:56.126Z,10.93
2022-10-01T08:43:06.108Z,10.93
2022-10-01T08:46:14.673Z,10.83
2022-10-01T08:49:21.665Z,11.11
2022-10-01T08:52:27.194Z,11.02
2022-10-01T08:55:36.544Z,11.01
2022-10-01T08:58:45.761Z,10.91
2022-10-01T09:01:48.487Z,10.90
2022-10-01T09:04:58.893Z,11.12
2022-10-01T09:08:16.974Z,11.18
2022-10-01T09:11:42.175Z,10.78
2022-10-01T09:15:04.418Z,10.99
2022-10-01T09:18:16.815Z,11.18
2022-10-01T09:21:21.470Z,11.23
2022-10-01T09:24:38.178Z,11.39
2022-10-01T09:27:41.992Z,11.47
2022-10-01T09:30:49.860Z,11.39
2022-10-01T09:33:58.967Z,11.31
2022-10-01T09:37:09.875Z,11.36
2022-10-01T09:40:17.943Z,11.28
2022-10-01T09:43:22.979Z,11.36
2022-10-01T09:46:26.559Z,11.34
2022-10-01T09:49:33.786Z,11.56
2022-10-01T09:52:39.741Z,11.54
2022-10-01T09:55:45.461Z,11.36
2022-10-01T09:58:56.308Z,11.33
2022-10-01T10:02:02.125Z,11.37
2022-10-01T10:05:06.871Z,11.42
2022-10-01T10:08:15.062Z,11.52
2022-10-01T10:11:23.610Z,11.56
2022-10-01T10:14:32.991Z,11.38
2022-10-01T10:17:37.781Z,11.65
2022-10-01T10:20:42.586Z,11.72
2022-10-01T10:23:50.491Z,11.97
2022-10-01T10:26:54.995Z,12.04
2022-10-01T10:30:06.744Z,12.13
2022-10-01T10:33:14.944Z,12.08
2022-10-01T10:36:17.738Z,12.21
2022-10-01T10:39:24.178Z,12.39
2022-10-01T10:42:27.575Z,12.62
2022-10-01T10:45:36.574Z,12.65
2022-10-01T10:48:44.418Z,12.63
2022-10-01T10:51:53.732Z,12.60
2022-10-01T10:54:57.722Z,12.79
2022-10-01T10:58:11.760Z,12.79
2022-10-01T11:01:19.577Z,12.92
2022-10-01T11:04:29.771Z,13.06
2022-10-01T11:07:33.282Z,13.16
2022-10-01T11:10:49.429Z,13.39
2022-10-01T11:14:09.581Z,13.55
2022-10-01T11:17:31.354Z,13.59
2022-10-01T11:20:41.080Z,13.80
2022-10-01T11:24:02.294Z,14.94
2022-10-01T11:27:12.349Z,15.15
2022-10-01T11:30:21.148Z,16.69
2022-10-01T11:33:35.720Z,17.25
2022-10-01T11:36:48.038Z,17.28
2022-10-01T11:39:56.397Z,16.57
2022-10-01T11:43:05.577Z,16.46
2022-10-01T11:46:12.978Z,16.22
2022-10-01T11:49:26.440Z,16.02
2022-10-01T11:52:36.279Z,15.84
2022-10-01T11:56:01.075Z,15.26
2022-10-01T11:59:07.102Z,15.54
2022-10-01T12:02:19.145Z,15.86
2022-10-01T12:05:26.645Z,15.87
2022-10-01T12:08:32.780Z,15.96
2022-10-01T12:11:41.780Z,16.31
2022-10-01T12:14:51.206Z,16.60
2022-10-01T12:17:58.236Z,17.38
2022-10-01T12:21:07.442Z,17.54
2022-10-01T12:24:15.047Z,17.85
2022-10-01T12:27:40.791Z,18.18
2022-10-01T12:30:49.648Z,19.18
2022-10-01T12:34:06.349Z,19.02
2022-10-01T12:37:22.213Z,19.09
2022-10-01T12:40:32.858Z,19.14
2022-10-01T12:43:55.576Z,19.69
2022-10-01T12:47:12.438Z,20.14
2022-10-01T12:50:28.137Z,20.41
2022-10-01T12:53:38.587Z,20.34
2022-10-01T12:56:48.113Z,19.02
2022-10-01T13:00:03.377Z,18.87
2022-10-01T13:03:36.785Z,18.64
2022-10-01T13:06:51.462Z,18.12
2022-10-01T13:10:05.868Z,18.01
2022-10-01T13:13:13.467Z,17.74
2022-10-01T13:16:28.831Z,17.59
2022-10-01T13:19:40.871Z,17.28
2022-10-01T13:22:48.189Z,17.15
2022-10-01T13:26:02.979Z,17.09
2022-10-01T13:29:25.435Z,16.94
2022-10-01T13:32:32.147Z,16.91
2022-10-01T13:35:39.149Z,16.77
2022-10-01T13:38:43.712Z,16.76
2022-10-01T13:41:47.998Z,16.34
2022-10-01T13:44:56.381Z,15.63
2022-10-01T13:48:07.804Z,14.94
2022-10-01T13:51:13.318Z,14.60
2022-10-01T13:54:27.590Z,14.66
2022-10-01T13:57:35.106Z,14.60
2022-10-01T14:00:49.082Z,14.54
2022-10-01T14:03:57.584Z,14.46
2022-10-01T14:07:04.526Z,14.44
2022-10-01T14:10:11.892Z,14.23
2022-10-01T14:13:38.455Z,14.36
2022-10-01T14:16:43.405Z,14.03
2022-10-01T14:19:46.937Z,14.15
2022-10-01T14:23:03.917Z,14.14
2022-10-01T14:26:18.997Z,14.33
2022-10-01T14:29:38.608Z,14.26
2022-10-01T14:32:59.317Z,14.40
2022-10-01T14:36:09.132Z,14.69
2022-10-01T14:39:16.519Z,14.73
2022-10-01T14:42:19.389Z,14.83
2022-10-01T14:45:23.317Z,14.86
2022-10-01T14:48:29.386Z,14.52
2022-10-01T14:51:32.064Z,14.63
2022-10-01T14:54:43.995Z,14.55
2022-10-01T14:57:49.419Z,14.65
2022-10-01T15:00:55.115Z,14.83
2022-10-01T15:03:57.731Z,14.74
2022-10-01T15:07:14.321Z,14.80
2022-10-01T15:10:19.377Z,14.73
2022-10-01T15:13:26.684Z,14.77
2022-10-01T15:16:33.146Z,14.80
2022-10-01T15:19:42.024Z,14.81
2022-10-01T15:22:47.928Z,14.74
2022-10-01T15:25:51.248Z,14.74
2022-10-01T15:29:03.526Z,14.70
2022-10-01T15:32:07.944Z,14.74
2022-10-01T15:35:13.826Z,14.47
2022-10-01T15:38:16.628Z,14.52
2022-10-01T15:41:32.597Z,14.40
2022-10-01T15:44:42.564Z,14.38
2022-10-01T15:47:52.181Z,14.45
2022-10-01T15:51:00.204Z,14.48
2022-10-01T15:54:08.270Z,14.33
2022-10-01T15:57:18.040Z,14.38
2022-10-01T16:00:26.703Z,14.35
2022-10-01T16:03:34.397Z,14.49
2022-10-01T16:06:40.654Z,14.59
2022-10-01T16:09:52.628Z,14.48
2022-10-01T16:12:55.133Z,14.43
2022-10-01T16:16:13.785Z,14.48
2022-10-01T16:19:29.881Z,14.32
2022-10-01T16:22:33.895Z,14.45
2022-10-01T16:25:44.630Z,14.42
2022-10-01T16:28:47.167Z,14.27
2022-10-01T16:31:51.375Z,14.21
2022-10-01T16:35:17.369Z,14.23
2022-10-01T16:38:19.859Z,14.32
2022-10-01T16:41:25.411Z,14.39
2022-10-01T16:44:28.443Z,14.27
2022-10-01T16:47:32.147Z,14.19
2022-10-01T16:50:36.006Z,14.01
2022-10-01T16:53:39.270Z,14.03
2022-10-01T16:56:41.787Z,14.12
2022-10-01T16:59:44.361Z,14.11
2022-10-01T17:02:47.107Z,14.07
2022-10-01T17:05:50.926Z,14.14
2022-10-01T17:08:53.422Z,14.11
2022-10-01T17:11:56.469Z,14.23
2022-10-01T17:14:59.178Z,14.26
2022-10-01T17:18:01.876Z,14.24
2022-10-01T17:21:06.485Z,14.25
2022-10-01T17:24:10.742Z,14.16
2022-10-01T17:27:13.266Z,14.09
2022-10-01T17:30:15.990Z,13.97
2022-10-01T17:33:20.114Z,13.92
2022-10-01T17:36:23.922Z,13.90
2022-10-01T17:39:26.579Z,13.90
2022-10-01T17:42:30.766Z,13.91
2022-10-01T17:45:33.302Z,13.92
2022-10-01T17:48:35.834Z,13.90
2022-10-01T17:51:39.670Z,13.82
2022-10-01T17:54:42.179Z,13.76
2022-10-01T17:57:44.658Z,13.78
2022-10-01T18:00:47.216Z,13.66
2022-10-01T18:03:54.773Z,13.77
2022-10-01T18:06:59.804Z,13.69
2022-10-01T18:10:02.411Z,13.75
2022-10-01T18:13:04.949Z,13.79
2022-10-01T18:16:11.118Z,13.76
2022-10-01T18:22:37.865Z,13.76
2022-10-01T18:25:40.414Z,13.73
2022-10-01T18:28:43.434Z,13.69
2022-10-01T18:31:46.664Z,13.66
2022-10-01T18:34:55.355Z,13.62
2022-10-01T18:38:03.629Z,13.60
2022-10-01T18:41:16.909Z,13.44
2022-10-01T18:44:21.258Z,13.46
2022-10-01T18:47:33.962Z,13.57
2022-10-01T18:50:44.029Z,13.54
2022-10-01T18:54:14.465Z,13.50
2022-10-01T18:57:31.924Z,13.47
2022-10-01T19:00:42.683Z,13.54
2022-10-01T19:04:13.931Z,13.50
2022-10-01T19:07:34.530Z,13.48
2022-10-01T19:10:42.173Z,13.44
2022-10-01T19:13:55.407Z,13.37
2022-10-01T19:17:06.893Z,13.40
2022-10-01T19:20:22.227Z,13.31
2022-10-01T19:23:40.685Z,13.28
2022-10-01T19:26:50.380Z,13.20
2022-10-01T19:30:04.324Z,13.30
2022-10-01T19:33:10.575Z,13.03
2022-10-01T19:36:22.781Z,13.16
2022-10-01T19:39:31.077Z,13.20
2022-10-01T19:42:39.552Z,13.22
2022-10-01T19:45:49.295Z,13.23
2022-10-01T19:48:58.651Z,13.26
2022-10-01T19:52:03.264Z,13.25
2022-10-01T19:55:13.882Z,13.22
2022-10-01T19:58:21.173Z,13.25
2022-10-01T20:01:38.468Z,13.20
2022-10-01T20:04:51.645Z,13.18
2022-10-01T20:08:01.311Z,12.92
2022-10-01T20:11:13.471Z,13.01
2022-10-01T20:14:55.925Z,12.92
2022-10-01T20:18:14.515Z,12.92
2022-10-01T20:21:26.828Z,12.81
2022-10-01T20:24:44.928Z,12.95
2022-10-01T20:27:54.826Z,12.96
2022-10-01T20:31:04.944Z,12.85
2022-10-01T20:34:17.257Z,12.82
2022-10-01T20:37:37.433Z,12.74
2022-10-01T20:40:45.432Z,12.85
2022-10-01T20:43:51.128Z,12.78
2022-10-01T20:47:00.675Z,12.67
2022-10-01T20:50:09.484Z,12.67
2022-10-01T20:53:24.790Z,12.64
2022-10-01T20:56:33.595Z,12.71
2022-10-01T20:59:41.037Z,12.64
2022-10-01T21:02:50.937Z,12.65
2022-10-01T21:05:58.498Z,12.73
2022-10-01T21:09:04.196Z,12.72
2022-10-01T21:12:16.088Z,12.73
2022-10-01T21:15:20.810Z,12.74
2022-10-01T21:18:38.778Z,12.72
2022-10-01T21:21:54.553Z,12.73
2022-10-01T21:25:04.290Z,12.60
2022-10-01T21:28:25.215Z,12.73
2022-10-01T21:31:41.624Z,12.71
2022-10-01T21:34:59.310Z,12.58
2022-10-01T21:38:11.197Z,12.57
2022-10-01T21:41:36.577Z,12.67
2022-10-01T21:45:10.018Z,12.70
2022-10-01T21:48:27.561Z,12.70
2022-10-01T21:51:46.181Z,12.61
2022-10-01T21:55:15.843Z,12.48
2022-10-01T21:58:34.407Z,12.69
2022-10-01T22:01:54.037Z,12.68
2022-10-01T22:05:02.286Z,12.67
2022-10-01T22:08:19.003Z,12.72
2022-10-01T22:11:24.312Z,12.75
2022-10-01T22:14:28.211Z,12.81
2022-10-01T22:17:34.513Z,12.91
2022-10-01T22:20:41.996Z,12.85
2022-10-01T22:23:53.584Z,12.79
2022-10-01T22:27:04.852Z,12.87
2022-10-01T22:30:11.833Z,12.83
2022-10-01T22:33:20.923Z,12.85
2022-10-01T22:36:30.934Z,12.76
2022-10-01T22:39:40.665Z,12.80
2022-10-01T22:42:55.923Z,12.91
2022-10-01T22:46:25.920Z,13.01
2022-10-01T22:49:39.809Z,13.15
2022-10-01T22:52:54.499Z,12.94
2022-10-01T22:55:58.625Z,12.66
2022-10-01T22:59:12.020Z,12.59
2022-10-01T23:02:24.417Z,12.47
2022-10-01T23:05:41.779Z,12.57
2022-10-01T23:08:51.360Z,12.40
2022-10-01T23:12:01.544Z,12.36
2022-10-01T23:15:18.262Z,12.37
2022-10-01T23:18:35.177Z,12.31
2022-10-01T23:21:46.942Z,12.33
2022-10-01T23:25:04.938Z,12.31
2022-10-01T23:28:23.278Z,12.48
2022-10-01T23:31:34.681Z,12.35
2022-10-01T23:34:47.418Z,12.10
2022-10-01T23:38:04.539Z,12.20
2022-10-01T23:41:15.181Z,12.32
2022-10-01T23:44:30.384Z,12.29
2022-10-01T23:47:39.147Z,12.22
2022-10-01T23:50:49.042Z,12.13
2022-10-01T23:53:58.440Z,12.15
2022-10-01T23:57:07.594Z,12.00
